createdAt,value
2023-04-09T00:04:36.394Z,125.30
2023-04-09T00:09:45.479Z,88.00
2023-04-09T00:14:54.067Z,103.60
2023-04-09T00:20:01.656Z,102.70
2023-04-09T00:25:13.858Z,95.80
2023-04-09T00:30:22.846Z,104.60
2023-04-09T00:35:30.930Z,103.30
2023-04-09T00:40:38.563Z,110.60
2023-04-09T00:45:47.312Z,116.60
2023-04-09T00:50:55.174Z,104.50
2023-04-09T00:56:02.911Z,115.70
2023-04-09T01:01:10.921Z,95.00
2023-04-09T01:06:25.339Z,110.40
2023-04-09T01:11:40.412Z,98.80
2023-04-09T01:16:54.134Z,108.10
2023-04-09T01:22:10.919Z,113.70
2023-04-09T01:27:19.111Z,89.80
2023-04-09T01:32:28.162Z,101.60
2023-04-09T01:37:37.189Z,103.30
2023-04-09T01:42:45.415Z,116.10
2023-04-09T01:47:54.334Z,126.60
2023-04-09T01:53:05.354Z,132.60
2023-04-09T01:58:13.421Z,144.30
2023-04-09T02:03:25.781Z,112.50
2023-04-09T02:08:36.808Z,141.40
2023-04-09T02:13:46.039Z,134.60
2023-04-09T02:18:57.156Z,132.50
2023-04-09T02:24:04.904Z,143.80
2023-04-09T02:29:12.359Z,151.20
2023-04-09T02:34:20.175Z,107.80
2023-04-09T02:39:27.422Z,148.30
2023-04-09T02:49:41.303Z,144.90
2023-04-09T02:54:48.648Z,150.70
2023-04-09T02:59:57.587Z,197.60
2023-04-09T03:05:05.887Z,139.60
2023-04-09T03:10:14.013Z,147.90
2023-04-09T03:15:21.757Z,144.00
2023-04-09T03:20:29.530Z,138.60
2023-04-09T03:25:37.492Z,138.80
2023-04-09T03:30:45.014Z,137.50
2023-04-09T03:35:52.829Z,146.30
2023-04-09T03:41:00.801Z,157.40
2023-04-09T03:46:16.120Z,119.60
2023-04-09T03:51:23.578Z,173.50
2023-04-09T03:56:31.155Z,144.60
2023-04-09T04:01:38.740Z,146.20
2023-04-09T04:06:46.576Z,153.00
2023-04-09T04:11:54.025Z,151.60
2023-04-09T04:17:01.426Z,135.20
2023-04-09T04:22:09.085Z,140.60
2023-04-09T04:27:16.691Z,138.30
2023-04-09T04:32:24.157Z,123.00
2023-04-09T04:37:31.652Z,141.70
2023-04-09T04:42:39.415Z,145.90
2023-04-09T04:52:57.934Z,143.50
2023-04-09T04:58:02.007Z,143.40
2023-04-09T05:03:06.278Z,137.60
2023-04-09T05:08:10.603Z,144.80
2023-04-09T05:13:14.749Z,123.50
2023-04-09T05:18:19.073Z,153.80
2023-04-09T05:23:23.823Z,163.70
2023-04-09T05:28:28.558Z,144.40
2023-04-09T05:33:37.763Z,149.30
2023-04-09T05:38:42.565Z,146.00
2023-04-09T05:43:47.127Z,123.00
2023-04-09T05:48:53.300Z,114.50
2023-04-09T05:53:58.981Z,138.20
2023-04-09T05:59:04.228Z,158.90
2023-04-09T06:04:10.118Z,136.90
2023-04-09T06:09:14.635Z,166.40
2023-04-09T06:14:18.759Z,163.30
2023-04-09T06:19:23.855Z,171.50
2023-04-09T06:24:28.595Z,133.90
2023-04-09T06:29:33.457Z,161.40
2023-04-09T06:34:38.452Z,128.90
2023-04-09T06:39:47.716Z,150.00
2023-04-09T06:45:02.413Z,149.10
2023-04-09T06:50:09.025Z,148.10
2023-04-09T06:55:13.607Z,142.30
2023-04-09T07:00:18.055Z,137.80
2023-04-09T07:05:22.172Z,153.00
2023-04-09T07:10:26.713Z,151.30
2023-04-09T07:15:32.353Z,130.70
2023-04-09T07:20:37.110Z,149.70
2023-04-09T07:25:40.962Z,153.10
2023-04-09T07:30:46.718Z,184.10
2023-04-09T07:35:50.842Z,169.80
2023-04-09T07:40:54.783Z,144.40
2023-04-09T07:45:58.721Z,111.20
2023-04-09T07:51:03.128Z,114.50
2023-04-09T07:56:08.813Z,465.80
2023-04-09T08:01:14.287Z,97.80
2023-04-09T08:06:18.088Z,60.60
2023-04-09T08:11:25.555Z,71.80
2023-04-09T08:16:32.898Z,73.00
2023-04-09T08:21:42.690Z,74.60
2023-04-09T08:26:47.145Z,78.20
2023-04-09T08:31:52.015Z,76.20
2023-04-09T08:36:57.234Z,155.20
2023-04-09T08:42:06.749Z,62.10
2023-04-09T08:47:12.206Z,80.60
2023-04-09T08:52:18.690Z,65.20
2023-04-09T08:57:24.316Z,69.00
2023-04-09T09:02:31.058Z,68.30
2023-04-09T09:07:36.111Z,72.60
2023-04-09T09:12:42.523Z,64.40
2023-04-09T09:17:56.137Z,60.80
2023-04-09T09:23:01.128Z,49.40
2023-04-09T09:28:09.658Z,215.60
2023-04-09T09:33:14.002Z,53.60
2023-04-09T09:38:18.255Z,50.40
2023-04-09T09:43:22.405Z,53.70
2023-04-09T09:48:28.345Z,54.60
2023-04-09T09:53:36.580Z,46.70
2023-04-09T09:58:45.842Z,41.00
2023-04-09T10:03:52.122Z,37.70
2023-04-09T10:08:59.590Z,39.80
2023-04-09T10:14:04.805Z,42.10
2023-04-09T10:19:13.881Z,42.50
2023-04-09T10:24:18.415Z,41.90
2023-04-09T10:29:28.881Z,42.90
2023-04-09T10:34:38.821Z,41.10
2023-04-09T10:39:46.895Z,38.10
2023-04-09T10:45:06.461Z,75.80
2023-04-09T10:50:18.181Z,40.80
2023-04-09T10:55:36.481Z,42.00
2023-04-09T11:00:45.440Z,38.30
2023-04-09T11:05:54.438Z,35.30
2023-04-09T11:10:58.985Z,38.50
2023-04-09T11:16:06.165Z,34.60
2023-04-09T11:21:13.039Z,34.00
2023-04-09T11:31:26.624Z,36.80
2023-04-09T11:36:31.822Z,30.20
2023-04-09T11:41:36.457Z,40.40
2023-04-09T11:52:52.551Z,36.80
2023-04-09T11:58:00.515Z,38.80
2023-04-09T12:03:06.948Z,38.60
2023-04-09T12:08:11.570Z,96.70
2023-04-09T12:13:16.306Z,43.50
2023-04-09T12:18:23.306Z,41.10
2023-04-09T12:23:27.300Z,40.40
2023-04-09T12:28:31.761Z,43.50
2023-04-09T12:33:38.857Z,39.40
2023-04-09T12:38:43.427Z,35.70
2023-04-09T12:43:47.696Z,39.10
2023-04-09T12:48:51.631Z,37.10
2023-04-09T12:53:55.865Z,34.40
2023-04-09T12:59:01.319Z,36.30
2023-04-09T13:04:05.919Z,32.80
2023-04-09T13:09:10.048Z,38.00
2023-04-09T13:14:14.233Z,35.80
2023-04-09T13:19:18.769Z,36.60
2023-04-09T13:24:22.745Z,36.70
2023-04-09T13:29:28.818Z,37.90
2023-04-09T13:34:33.095Z,33.40
2023-04-09T13:39:37.796Z,36.30
2023-04-09T13:44:44.739Z,35.50
2023-04-09T13:49:50.967Z,37.40
2023-04-09T13:54:55.103Z,38.00
2023-04-09T14:00:01.602Z,35.30
2023-04-09T14:05:07.592Z,33.40
2023-04-09T14:10:12.444Z,36.00
2023-04-09T14:15:16.539Z,35.10
2023-04-09T14:20:20.681Z,38.30
2023-04-09T14:25:24.512Z,37.20
2023-04-09T14:30:28.414Z,38.60
2023-04-09T14:35:32.454Z,34.20
2023-04-09T14:40:37.883Z,30.20
2023-04-09T14:45:41.717Z,28.50
2023-04-09T14:54:38.217Z,34.80
2023-04-09T14:59:45.964Z,34.00
2023-04-09T15:04:53.430Z,29.90
2023-04-09T15:10:01.429Z,38.50
2023-04-09T15:15:11.481Z,36.60
2023-04-09T15:20:19.414Z,35.50
2023-04-09T15:25:27.007Z,38.50
2023-04-09T15:30:35.620Z,34.60
2023-04-09T15:35:43.238Z,39.80
2023-04-09T15:40:51.971Z,41.80
2023-04-09T15:45:59.726Z,45.10
2023-04-09T15:51:08.278Z,41.50
2023-04-09T15:56:16.776Z,43.60
2023-04-09T16:01:24.470Z,32.70
2023-04-09T16:06:32.029Z,39.40
2023-04-09T16:11:40.925Z,41.80
2023-04-09T16:16:50.386Z,42.50
2023-04-09T16:21:57.837Z,41.90
2023-04-09T16:27:05.570Z,37.70
2023-04-09T16:32:13.462Z,38.30
2023-04-09T16:37:21.265Z,41.30
2023-04-09T16:42:30.707Z,40.40
2023-04-09T16:47:38.650Z,42.10
2023-04-09T16:52:46.844Z,42.90
2023-04-09T16:57:56.181Z,44.30
2023-04-09T17:03:03.931Z,44.60
2023-04-09T17:08:11.942Z,46.20
2023-04-09T17:13:19.900Z,45.40
2023-04-09T17:18:27.521Z,41.20
2023-04-09T17:23:35.338Z,48.70
2023-04-09T17:28:43.395Z,46.60
2023-04-09T17:33:51.403Z,43.10
2023-04-09T17:38:59.348Z,50.20
2023-04-09T17:44:07.405Z,52.70
2023-04-09T17:49:15.215Z,67.30
2023-04-09T17:54:22.944Z,55.90
2023-04-09T17:59:31.043Z,51.60
2023-04-09T18:04:38.607Z,61.30
2023-04-09T18:09:46.577Z,56.40
2023-04-09T18:14:54.600Z,53.60
2023-04-09T18:20:02.467Z,50.80
2023-04-09T18:25:11.873Z,46.10
2023-04-09T18:30:19.882Z,54.80
2023-04-09T18:35:27.732Z,52.90
2023-04-09T18:40:41.239Z,53.80
2023-04-09T18:45:50.116Z,53.20
2023-04-09T18:50:57.757Z,51.40
2023-04-09T18:56:05.332Z,50.90
2023-04-09T19:01:17.725Z,60.50
2023-04-09T19:06:25.845Z,58.40
2023-04-09T19:11:33.548Z,57.20
2023-04-09T19:16:41.204Z,62.90
2023-04-09T19:21:48.791Z,54.60
2023-04-09T19:26:56.872Z,57.20
2023-04-09T19:32:04.165Z,62.70
2023-04-09T19:37:12.098Z,61.10
2023-04-09T19:42:19.730Z,73.60
2023-04-09T19:47:27.610Z,77.30
2023-04-09T19:52:35.280Z,79.10
2023-04-09T19:57:44.261Z,77.70
2023-04-09T20:02:52.734Z,92.00
2023-04-09T20:08:00.935Z,94.10
2023-04-09T20:13:09.191Z,93.80
2023-04-09T20:18:16.930Z,87.90
2023-04-09T20:23:24.607Z,86.80
2023-04-09T20:28:32.352Z,79.50
2023-04-09T20:33:40.179Z,79.20
2023-04-09T20:38:49.575Z,86.30
2023-04-09T20:43:57.218Z,90.10
2023-04-09T20:49:05.781Z,85.30
2023-04-09T20:54:14.331Z,83.60
2023-04-09T20:59:23.755Z,82.00
2023-04-09T21:04:31.566Z,87.40
2023-04-09T21:09:39.316Z,84.10
2023-04-09T21:14:48.099Z,80.20
2023-04-09T21:19:56.962Z,91.80
2023-04-09T21:25:05.438Z,73.60
2023-04-09T21:30:13.893Z,94.60
2023-04-09T21:35:21.793Z,88.30
2023-04-09T21:40:29.514Z,67.10
2023-04-09T21:45:37.279Z,71.70
2023-04-09T21:54:39.781Z,80.50
2023-04-09T21:59:46.984Z,86.30
2023-04-09T22:04:54.520Z,70.00
2023-04-09T22:10:01.704Z,82.40
2023-04-09T22:20:16.229Z,83.10
2023-04-09T22:25:23.980Z,79.00
2023-04-09T22:30:31.590Z,79.00
2023-04-09T22:35:39.125Z,84.70
2023-04-09T22:40:48.982Z,78.70
2023-04-09T22:45:57.519Z,102.80
2023-04-09T22:51:05.163Z,76.80
2023-04-09T22:56:13.037Z,67.20
2023-04-09T23:04:40.205Z,70.70
2023-04-09T23:09:45.874Z,74.70
2023-04-09T23:14:51.329Z,75.50
2023-04-09T23:19:55.572Z,75.90
2023-04-09T23:24:59.907Z,76.20
2023-04-09T23:30:05.622Z,72.70
2023-04-09T23:35:11.041Z,80.80
2023-04-09T23:40:17.500Z,87.70
2023-04-09T23:45:23.169Z,86.00
2023-04-09T23:50:28.454Z,80.30
2023-04-09T23:55:33.658Z,85.10
